createdAt,value
2024-03-08T00:00:41.745Z,6.49
2024-03-08T00:01:38.734Z,6.64
2024-03-08T00:02:35.782Z,6.63
2024-03-08T00:03:33.801Z,6.79
2024-03-08T00:04:30.797Z,6.38
2024-03-08T00:05:27.904Z,6.50
2024-03-08T00:06:25.963Z,6.76
2024-03-08T00:07:22.920Z,6.37
2024-03-08T00:08:19.786Z,6.49
2024-03-08T00:09:16.967Z,6.39
2024-03-08T00:10:15.615Z,6.50
2024-03-08T00:11:13.564Z,6.56
2024-03-08T00:12:10.533Z,6.81
2024-03-08T00:13:07.964Z,6.84
2024-03-08T00:14:07.886Z,6.69
2024-03-08T00:15:05.423Z,6.96
2024-03-08T00:16:03.488Z,6.95
2024-03-08T00:17:00.435Z,7.12
2024-03-08T00:17:57.412Z,6.88
2024-03-08T00:18:54.413Z,6.83
2024-03-08T00:19:51.346Z,6.69
2024-03-08T00:20:48.394Z,6.71
2024-03-08T00:21:46.154Z,6.40
2024-03-08T00:22:43.358Z,6.23
2024-03-08T00:23:40.755Z,6.69
2024-03-08T00:24:38.517Z,6.48
2024-03-08T00:25:35.362Z,6.80
2024-03-08T00:26:32.297Z,6.62
2024-03-08T00:27:31.869Z,6.55
2024-03-08T00:28:28.785Z,6.46
2024-03-08T00:29:25.641Z,6.37
2024-03-08T00:30:26.368Z,6.41
2024-03-08T00:31:23.409Z,6.14
2024-03-08T00:32:20.306Z,6.48
2024-03-08T00:33:17.328Z,6.56
2024-03-08T00:34:14.237Z,6.70
2024-03-08T00:35:11.223Z,6.81
2024-03-08T00:36:08.900Z,6.94
2024-03-08T00:37:06.253Z,7.01
2024-03-08T00:38:03.579Z,7.07
2024-03-08T00:39:01.985Z,6.94
2024-03-08T00:39:58.927Z,6.71
2024-03-08T00:40:57.091Z,6.35
2024-03-08T00:41:53.976Z,6.67
2024-03-08T00:42:50.879Z,6.75
2024-03-08T00:43:48.927Z,6.56
2024-03-08T00:44:46.347Z,6.47
2024-03-08T00:45:43.935Z,6.52
2024-03-08T00:46:40.857Z,6.44
2024-03-08T00:47:37.790Z,6.47
2024-03-08T00:48:34.900Z,6.57
2024-03-08T00:49:31.740Z,6.08
2024-03-08T00:50:28.633Z,6.23
2024-03-08T00:51:25.487Z,6.41
2024-03-08T00:52:22.340Z,5.88
2024-03-08T00:53:19.264Z,6.46
2024-03-08T00:54:17.809Z,6.55
2024-03-08T00:55:14.754Z,6.31
2024-03-08T00:56:11.698Z,6.45
2024-03-08T00:57:08.722Z,6.40
2024-03-08T00:58:06.179Z,6.47
2024-03-08T00:59:03.662Z,6.54
2024-03-08T01:00:00.749Z,6.58
2024-03-08T01:00:58.598Z,6.48
2024-03-08T01:01:55.863Z,6.44
2024-03-08T01:02:52.787Z,6.20
2024-03-08T01:03:49.898Z,6.10
2024-03-08T01:04:48.372Z,6.39
2024-03-08T01:05:45.266Z,6.42
2024-03-08T01:06:43.788Z,6.57
2024-03-08T01:07:40.828Z,6.28
2024-03-08T01:08:39.554Z,6.21
2024-03-08T01:09:36.710Z,6.59
2024-03-08T01:10:33.559Z,6.28
2024-03-08T01:11:30.426Z,6.38
2024-03-08T01:12:27.451Z,5.97
2024-03-08T01:13:24.310Z,6.20
2024-03-08T01:14:23.558Z,6.27
2024-03-08T01:15:20.965Z,6.28
2024-03-08T01:16:22.521Z,6.30
2024-03-08T01:17:19.391Z,6.24
2024-03-08T01:18:16.300Z,6.33
2024-03-08T01:19:13.268Z,5.98
2024-03-08T01:20:12.388Z,5.98
2024-03-08T01:21:09.549Z,6.14
2024-03-08T01:22:06.547Z,6.47
2024-03-08T01:23:03.431Z,6.21
2024-03-08T01:24:00.337Z,6.64
2024-03-08T01:24:57.753Z,6.54
2024-03-08T01:25:58.134Z,6.53
2024-03-08T01:26:55.289Z,6.69
2024-03-08T01:27:52.184Z,6.83
2024-03-08T01:28:49.141Z,6.73
2024-03-08T01:29:45.970Z,6.43
2024-03-08T01:30:44.198Z,6.10
2024-03-08T01:31:41.092Z,6.18
2024-03-08T01:32:38.089Z,6.22
2024-03-08T01:33:35.066Z,5.99
2024-03-08T01:34:31.876Z,6.09
2024-03-08T01:35:28.770Z,5.95
2024-03-08T01:36:26.097Z,6.38
2024-03-08T01:37:22.980Z,6.44
2024-03-08T01:38:22.358Z,6.30
2024-03-08T01:39:19.249Z,6.48
2024-03-08T01:40:17.868Z,6.57
2024-03-08T01:41:15.439Z,6.20
2024-03-08T01:42:14.342Z,6.49
2024-03-08T01:43:30.336Z,6.29
2024-03-08T01:44:27.258Z,6.52
2024-03-08T01:45:24.158Z,6.49
2024-03-08T01:46:23.556Z,6.53
2024-03-08T01:47:24.090Z,6.17
2024-03-08T01:48:25.556Z,6.55
2024-03-08T01:49:26.377Z,6.58
2024-03-08T01:50:23.263Z,6.41
2024-03-08T01:51:21.129Z,6.51
2024-03-08T01:52:21.953Z,6.79
2024-03-08T01:53:20.142Z,6.42
2024-03-08T01:54:19.925Z,6.46
2024-03-08T01:55:17.013Z,6.06
2024-03-08T01:56:15.376Z,6.11
2024-03-08T01:57:13.565Z,6.25
2024-03-08T01:58:12.975Z,5.98
2024-03-08T01:59:10.199Z,6.57
2024-03-08T02:00:11.538Z,6.39
2024-03-08T02:01:10.427Z,6.72
2024-03-08T02:02:10.062Z,6.21
2024-03-08T02:03:07.115Z,6.39
2024-03-08T02:04:04.176Z,6.61
2024-03-08T02:05:02.520Z,6.45
2024-03-08T02:06:02.138Z,6.63
2024-03-08T02:06:59.309Z,6.63
2024-03-08T02:07:56.951Z,6.64
2024-03-08T02:08:54.680Z,6.39
2024-03-08T02:09:52.431Z,6.73
2024-03-08T02:10:50.670Z,6.60
2024-03-08T02:11:47.713Z,6.53
2024-03-08T02:12:45.252Z,6.39
2024-03-08T02:13:42.722Z,6.38
2024-03-08T02:14:41.344Z,6.51
2024-03-08T02:15:57.868Z,6.83
2024-03-08T02:16:55.312Z,6.68
2024-03-08T02:17:52.214Z,6.82
2024-03-08T02:18:49.326Z,6.96
2024-03-08T02:19:46.176Z,6.31
2024-03-08T02:20:43.028Z,6.47
2024-03-08T02:21:39.863Z,6.59
2024-03-08T02:22:38.135Z,6.75
2024-03-08T02:23:35.794Z,6.72
2024-03-08T02:24:34.607Z,6.85
2024-03-08T02:25:32.214Z,7.01
2024-03-08T02:26:29.090Z,6.69
2024-03-08T02:27:31.099Z,6.70
2024-03-08T02:28:27.932Z,6.52
2024-03-08T02:29:25.538Z,6.66
2024-03-08T02:30:22.337Z,6.40
2024-03-08T02:31:19.426Z,6.53
2024-03-08T02:32:16.969Z,6.70
2024-03-08T02:33:19.038Z,6.69
2024-03-08T02:34:16.031Z,6.44
2024-03-08T02:35:12.884Z,6.78
2024-03-08T02:36:09.957Z,6.43
2024-03-08T02:37:06.893Z,6.45
2024-03-08T02:38:05.067Z,6.31
2024-03-08T02:39:06.614Z,6.37
2024-03-08T02:40:03.761Z,6.77
2024-03-08T02:41:00.681Z,6.81
2024-03-08T02:41:57.588Z,6.57
2024-03-08T02:42:54.932Z,6.34
2024-03-08T02:43:51.863Z,6.48
2024-03-08T02:44:48.734Z,6.27
2024-03-08T02:45:46.834Z,6.50
2024-03-08T02:46:43.683Z,6.28
2024-03-08T02:47:40.800Z,6.32
2024-03-08T02:48:37.889Z,6.40
2024-03-08T02:49:34.746Z,6.25
2024-03-08T02:50:31.671Z,6.55
2024-03-08T02:51:30.318Z,6.51
2024-03-08T02:52:27.176Z,6.56
2024-03-08T02:53:25.674Z,6.40
2024-03-08T02:54:22.509Z,6.39
2024-03-08T02:55:19.514Z,6.38
2024-03-08T02:56:18.079Z,6.12
2024-03-08T02:57:16.179Z,5.81
2024-03-08T02:58:13.070Z,5.84
2024-03-08T02:59:09.849Z,6.04
2024-03-08T03:00:10.640Z,6.26
2024-03-08T03:01:07.710Z,6.66
2024-03-08T03:02:04.628Z,6.55
2024-03-08T03:03:04.218Z,6.45
2024-03-08T03:04:01.512Z,6.27
2024-03-08T03:04:58.388Z,6.65
2024-03-08T03:05:58.281Z,6.45
2024-03-08T03:06:55.990Z,6.36
2024-03-08T03:07:52.993Z,6.61
2024-03-08T03:08:50.089Z,6.85
2024-03-08T03:09:46.941Z,6.96
2024-03-08T03:10:43.916Z,6.53
2024-03-08T03:11:41.129Z,6.79
2024-03-08T03:12:38.933Z,6.96
2024-03-08T03:13:35.737Z,6.86
2024-03-08T03:14:32.566Z,6.82
2024-03-08T03:15:29.480Z,6.63
2024-03-08T03:16:26.309Z,6.58
2024-03-08T03:17:25.880Z,6.67
2024-03-08T03:18:25.083Z,6.55
2024-03-08T03:19:22.235Z,6.83
2024-03-08T03:20:33.808Z,6.37
2024-03-08T03:21:33.099Z,6.58
2024-03-08T03:22:31.563Z,6.64
2024-03-08T03:23:28.382Z,6.00
2024-03-08T03:24:25.299Z,6.03
2024-03-08T03:25:34.751Z,6.54
2024-03-08T03:26:32.455Z,6.08
2024-03-08T03:27:29.433Z,6.27
2024-03-08T03:28:26.270Z,6.11
2024-03-08T03:29:23.092Z,6.42
2024-03-08T03:30:23.061Z,6.55
2024-03-08T03:31:19.933Z,5.66
2024-03-08T03:32:19.677Z,6.25
2024-03-08T03:33:17.965Z,6.28
2024-03-08T03:34:14.946Z,6.09
2024-03-08T03:35:12.342Z,6.25
2024-03-08T03:36:13.147Z,6.48
2024-03-08T03:37:13.441Z,6.34
2024-03-08T03:38:11.752Z,6.09
2024-03-08T03:39:14.098Z,5.92
2024-03-08T03:40:11.285Z,6.24
2024-03-08T03:41:11.747Z,6.53
2024-03-08T03:42:08.930Z,6.51
2024-03-08T03:43:05.893Z,6.07
2024-03-08T03:44:02.756Z,6.46
2024-03-08T03:44:59.560Z,6.07
2024-03-08T03:45:56.994Z,5.92
2024-03-08T03:46:53.859Z,6.02
2024-03-08T03:47:51.159Z,5.97
2024-03-08T03:48:48.258Z,5.92
2024-03-08T03:49:46.203Z,6.06
2024-03-08T03:50:43.186Z,6.02
2024-03-08T03:51:40.332Z,6.25
2024-03-08T03:52:37.301Z,6.27
2024-03-08T03:53:34.151Z,5.97
2024-03-08T03:54:31.907Z,6.31
2024-03-08T03:55:29.712Z,5.76
2024-03-08T03:56:28.060Z,6.22
2024-03-08T03:57:24.918Z,6.02
2024-03-08T03:58:23.807Z,6.32
2024-03-08T03:59:20.955Z,6.33
2024-03-08T04:00:18.230Z,6.21
2024-03-08T04:01:15.520Z,6.42
2024-03-08T04:02:12.394Z,6.32
2024-03-08T04:03:09.880Z,6.69
2024-03-08T04:04:07.159Z,6.05
2024-03-08T04:05:05.544Z,6.07
2024-03-08T04:06:03.228Z,6.04
2024-03-08T04:07:00.198Z,5.82
2024-03-08T04:07:58.124Z,5.93
2024-03-08T04:08:55.085Z,5.85
2024-03-08T04:09:52.113Z,5.83
2024-03-08T04:10:48.977Z,6.14
2024-03-08T04:11:46.300Z,6.18
2024-03-08T04:12:43.391Z,5.90
2024-03-08T04:13:40.232Z,5.87
2024-03-08T04:14:37.532Z,5.57
2024-03-08T04:15:34.998Z,5.99
2024-03-08T04:16:32.695Z,5.72
2024-03-08T04:17:29.782Z,6.06
2024-03-08T04:18:27.334Z,5.94
2024-03-08T04:19:25.415Z,6.13
2024-03-08T04:20:22.620Z,6.34
2024-03-08T04:21:22.473Z,6.28
2024-03-08T04:22:19.695Z,6.34
2024-03-08T04:23:17.309Z,6.30
2024-03-08T04:24:14.158Z,6.41
2024-03-08T04:25:11.048Z,6.14
2024-03-08T04:26:10.058Z,5.88
2024-03-08T04:27:07.851Z,6.28
2024-03-08T04:28:05.154Z,6.23
2024-03-08T04:29:02.568Z,6.15
2024-03-08T04:30:00.513Z,6.22
2024-03-08T04:30:57.394Z,6.32
2024-03-08T04:31:57.152Z,6.33
2024-03-08T04:32:54.369Z,6.45
2024-03-08T04:33:51.442Z,6.08
2024-03-08T04:34:48.277Z,5.98
2024-03-08T04:35:47.192Z,6.19
2024-03-08T04:36:44.450Z,6.11
2024-03-08T04:37:41.497Z,6.41
2024-03-08T04:38:42.160Z,6.10
2024-03-08T04:39:39.740Z,6.04
2024-03-08T04:40:36.605Z,6.03
2024-03-08T04:41:35.308Z,6.08
2024-03-08T04:42:36.228Z,5.98
2024-03-08T04:43:33.163Z,5.69
2024-03-08T04:44:31.038Z,5.82
2024-03-08T04:45:28.097Z,5.70
2024-03-08T04:46:25.553Z,6.09
2024-03-08T04:47:22.399Z,5.97
2024-03-08T04:48:19.355Z,6.27
2024-03-08T04:49:16.324Z,5.85
2024-03-08T04:50:13.470Z,5.89
2024-03-08T04:51:11.300Z,5.83
2024-03-08T04:52:08.461Z,5.48
2024-03-08T04:53:09.295Z,6.04
2024-03-08T04:54:06.675Z,6.26
2024-03-08T04:55:06.253Z,6.15
2024-03-08T04:56:07.366Z,6.08
2024-03-08T04:57:07.985Z,5.85
2024-03-08T04:58:09.181Z,6.06
2024-03-08T04:59:09.461Z,5.83
2024-03-08T05:00:12.531Z,5.78
2024-03-08T05:01:12.185Z,5.73
2024-03-08T05:02:09.095Z,5.75
2024-03-08T05:03:06.166Z,6.26
2024-03-08T05:04:05.193Z,6.19
2024-03-08T05:05:03.673Z,6.05
2024-03-08T05:06:00.579Z,5.93
2024-03-08T05:06:57.495Z,5.34
2024-03-08T05:07:54.689Z,5.59
2024-03-08T05:08:51.840Z,5.61
2024-03-08T05:09:53.123Z,5.40
2024-03-08T05:10:50.336Z,5.77
2024-03-08T05:11:48.503Z,6.02
2024-03-08T05:12:45.758Z,6.16
2024-03-08T05:13:42.744Z,6.02
2024-03-08T05:14:40.518Z,6.07
2024-03-08T05:15:37.692Z,6.05
2024-03-08T05:16:35.078Z,5.81
2024-03-08T05:17:32.107Z,5.52
2024-03-08T05:18:33.520Z,5.96
2024-03-08T05:19:34.559Z,6.19
2024-03-08T05:20:32.437Z,5.96
2024-03-08T05:21:30.069Z,5.46
2024-03-08T05:22:27.197Z,5.84
2024-03-08T05:23:24.077Z,5.85
2024-03-08T05:24:21.041Z,5.96
2024-03-08T05:25:18.827Z,5.93
2024-03-08T05:26:15.660Z,5.75
2024-03-08T05:27:12.600Z,6.10
2024-03-08T05:28:10.122Z,5.78
2024-03-08T05:29:07.051Z,5.97
2024-03-08T05:30:05.546Z,6.08
2024-03-08T05:31:02.548Z,5.52
2024-03-08T05:32:00.590Z,5.77
2024-03-08T05:32:58.237Z,5.87
2024-03-08T05:33:56.671Z,5.96
2024-03-08T05:36:07.792Z,5.79
2024-03-08T05:37:05.032Z,5.89
2024-03-08T05:38:03.010Z,6.02
2024-03-08T05:38:59.924Z,5.87
2024-03-08T05:39:56.803Z,6.20
2024-03-08T05:40:53.624Z,5.73
2024-03-08T05:41:51.846Z,6.03
2024-03-08T05:42:48.757Z,5.62
2024-03-08T05:43:45.790Z,5.84
2024-03-08T05:44:42.797Z,5.29
2024-03-08T05:45:39.889Z,6.12
2024-03-08T05:46:38.157Z,6.20
2024-03-08T05:47:35.348Z,5.81
2024-03-08T05:48:33.715Z,5.78
2024-03-08T05:49:30.818Z,5.79
2024-03-08T05:50:28.571Z,5.90
2024-03-08T05:51:28.396Z,6.04
2024-03-08T05:52:25.335Z,6.03
2024-03-08T05:53:23.909Z,6.15
2024-03-08T05:54:24.198Z,5.54
2024-03-08T05:55:25.997Z,5.76
2024-03-08T05:56:24.140Z,5.96
2024-03-08T05:57:21.144Z,5.86
2024-03-08T05:58:18.022Z,6.08
2024-03-08T05:59:15.061Z,6.27
2024-03-08T06:00:12.583Z,5.99
2024-03-08T06:01:11.827Z,5.99
2024-03-08T06:02:08.778Z,5.97
2024-03-08T06:03:05.793Z,6.26
2024-03-08T06:04:04.159Z,6.18
2024-03-08T06:05:03.287Z,5.87
2024-03-08T06:06:00.483Z,6.34
2024-03-08T06:06:58.268Z,6.07
2024-03-08T06:07:55.091Z,6.22
2024-03-08T06:08:52.575Z,6.15
2024-03-08T06:09:50.314Z,6.23
2024-03-08T06:10:49.896Z,6.41
2024-03-08T06:11:47.013Z,6.20
2024-03-08T06:12:44.454Z,6.05
2024-03-08T06:13:41.346Z,5.43
2024-03-08T06:14:38.885Z,6.04
2024-03-08T06:15:36.000Z,6.05
2024-03-08T06:16:35.040Z,6.06
2024-03-08T06:17:32.059Z,6.16
2024-03-08T06:18:29.038Z,6.21
2024-03-08T06:19:26.141Z,6.15
2024-03-08T06:20:27.340Z,6.05
2024-03-08T06:21:27.457Z,6.15
2024-03-08T06:22:24.328Z,5.99
2024-03-08T06:23:21.135Z,6.37
2024-03-08T06:24:19.050Z,6.41
2024-03-08T06:25:16.888Z,5.86
2024-03-08T06:26:13.990Z,6.24
2024-03-08T06:27:10.957Z,6.13
2024-03-08T06:28:07.874Z,5.81
2024-03-08T06:29:07.991Z,5.97
2024-03-08T06:30:06.033Z,5.56
2024-03-08T06:31:04.261Z,5.72
2024-03-08T06:32:01.327Z,5.77
2024-03-08T06:32:58.305Z,6.14
2024-03-08T06:33:59.063Z,6.19
2024-03-08T06:34:56.191Z,5.79
2024-03-08T06:35:59.473Z,5.95
2024-03-08T06:37:02.020Z,6.32
2024-03-08T06:37:59.922Z,6.17
2024-03-08T06:38:58.235Z,5.94
2024-03-08T06:39:56.410Z,5.70
2024-03-08T06:40:54.210Z,6.13
2024-03-08T06:41:52.695Z,6.31
2024-03-08T06:42:49.610Z,6.11
2024-03-08T06:43:49.550Z,6.08
2024-03-08T06:44:50.678Z,6.09
2024-03-08T06:45:50.003Z,6.25
2024-03-08T06:46:47.052Z,6.50
2024-03-08T06:47:44.707Z,6.44
2024-03-08T06:48:41.854Z,6.65
2024-03-08T06:49:38.798Z,6.62
2024-03-08T06:50:37.522Z,6.30
2024-03-08T06:51:34.496Z,6.51
2024-03-08T06:52:31.415Z,6.55
2024-03-08T06:53:28.800Z,6.50
2024-03-08T06:54:26.110Z,6.62
2024-03-08T06:55:23.128Z,6.73
2024-03-08T06:56:20.747Z,6.61
2024-03-08T06:57:18.052Z,6.86
2024-03-08T06:58:15.009Z,6.89
2024-03-08T06:59:14.059Z,6.55
2024-03-08T07:00:13.465Z,6.91
2024-03-08T07:01:15.411Z,7.07
2024-03-08T07:02:12.712Z,6.55
2024-03-08T07:03:13.489Z,7.08
2024-03-08T07:04:13.072Z,6.97
2024-03-08T07:05:11.630Z,7.00
2024-03-08T07:06:08.997Z,7.04
2024-03-08T07:07:06.710Z,6.97
2024-03-08T07:08:03.564Z,6.99
2024-03-08T07:09:00.696Z,6.59
2024-03-08T07:09:58.080Z,6.99
2024-03-08T07:10:55.850Z,6.55
2024-03-08T07:11:56.278Z,6.16
2024-03-08T07:12:56.552Z,6.54
2024-03-08T07:13:53.485Z,6.80
2024-03-08T07:14:50.926Z,6.92
2024-03-08T07:15:47.946Z,7.19
2024-03-08T07:16:45.988Z,6.76
2024-03-08T07:17:45.661Z,6.48
2024-03-08T07:18:44.895Z,6.86
2024-03-08T07:19:41.989Z,6.66
2024-03-08T07:20:39.623Z,7.07
2024-03-08T07:21:37.176Z,7.19
2024-03-08T07:22:34.392Z,7.07
2024-03-08T07:23:49.886Z,7.19
2024-03-08T07:24:55.906Z,7.23
2024-03-08T07:25:52.800Z,7.04
2024-03-08T07:26:51.264Z,6.99
2024-03-08T07:27:57.720Z,7.44
2024-03-08T07:28:57.508Z,7.36
2024-03-08T07:30:08.292Z,7.31
2024-03-08T07:31:24.363Z,7.46
2024-03-08T07:32:26.643Z,7.18
2024-03-08T07:33:24.180Z,6.79
2024-03-08T07:34:22.195Z,7.00
2024-03-08T07:35:20.075Z,7.17
2024-03-08T07:36:17.126Z,6.96
2024-03-08T07:37:14.922Z,7.15
2024-03-08T07:38:12.918Z,7.15
2024-03-08T07:39:13.103Z,7.28
2024-03-08T07:40:10.685Z,7.32
2024-03-08T07:41:07.594Z,7.51
2024-03-08T07:42:04.547Z,7.41
2024-03-08T07:43:01.516Z,7.23
2024-03-08T07:43:58.367Z,6.63
2024-03-08T07:44:55.991Z,6.90
2024-03-08T07:45:54.263Z,7.18
2024-03-08T07:46:52.789Z,7.09
2024-03-08T07:47:52.122Z,7.38
2024-03-08T07:48:49.884Z,7.55
2024-03-08T07:49:47.079Z,7.64
2024-03-08T07:50:44.037Z,7.52
2024-03-08T07:51:40.899Z,7.26
2024-03-08T07:52:37.968Z,7.45
2024-03-08T07:53:34.905Z,7.68
2024-03-08T07:54:32.235Z,7.34
2024-03-08T07:55:29.967Z,7.90
2024-03-08T07:56:26.873Z,7.36
2024-03-08T07:57:23.644Z,6.86
2024-03-08T07:58:20.574Z,7.43
2024-03-08T07:59:17.632Z,7.68
2024-03-08T08:00:18.886Z,8.07
2024-03-08T08:01:19.725Z,8.09
2024-03-08T08:02:16.912Z,7.95
2024-03-08T08:03:14.143Z,8.21
2024-03-08T08:04:13.632Z,8.13
2024-03-08T08:05:11.514Z,8.10
2024-03-08T08:06:08.743Z,7.73
2024-03-08T08:07:05.629Z,7.35
2024-03-08T08:08:07.712Z,7.37
2024-03-08T08:09:04.713Z,7.72
2024-03-08T08:10:01.724Z,7.80
2024-03-08T08:11:02.591Z,7.94
2024-03-08T08:11:59.576Z,8.03
2024-03-08T08:12:58.314Z,8.30
2024-03-08T08:13:56.097Z,8.18
2024-03-08T08:14:53.025Z,7.89
2024-03-08T08:15:50.050Z,7.82
2024-03-08T08:16:47.019Z,7.91
2024-03-08T08:17:44.230Z,7.39
2024-03-08T08:18:42.118Z,7.67
2024-03-08T08:19:40.324Z,7.92
2024-03-08T08:20:37.248Z,7.86
2024-03-08T08:21:40.124Z,7.72
2024-03-08T08:22:37.152Z,7.38
2024-03-08T08:23:34.137Z,7.71
2024-03-08T08:24:31.313Z,7.54
2024-03-08T08:25:28.516Z,7.47
2024-03-08T08:26:27.526Z,7.58
2024-03-08T08:27:24.508Z,7.66
2024-03-08T08:28:21.870Z,7.94
2024-03-08T08:29:18.781Z,7.88
2024-03-08T08:30:15.757Z,7.59
2024-03-08T08:31:12.678Z,8.01
2024-03-08T08:32:09.561Z,8.14
2024-03-08T08:33:06.999Z,7.88
2024-03-08T08:34:04.237Z,8.35
2024-03-08T08:35:01.133Z,8.40
2024-03-08T08:35:57.983Z,8.34
2024-03-08T08:36:55.687Z,8.28
2024-03-08T08:37:52.672Z,8.50
2024-03-08T08:38:49.591Z,8.51
2024-03-08T08:39:46.538Z,8.52
2024-03-08T08:40:43.383Z,8.41
2024-03-08T08:41:42.577Z,8.63
2024-03-08T08:42:39.545Z,8.57
2024-03-08T08:43:37.386Z,8.70
2024-03-08T08:44:37.453Z,8.86
2024-03-08T08:45:34.671Z,8.95
2024-03-08T08:46:31.524Z,8.68
2024-03-08T08:47:29.567Z,8.33
2024-03-08T08:48:26.587Z,8.53
2024-03-08T08:49:25.069Z,8.37
2024-03-08T08:50:24.654Z,8.67
2024-03-08T08:51:22.032Z,8.44
2024-03-08T08:52:20.100Z,8.67
2024-03-08T08:53:18.226Z,8.65
2024-03-08T08:54:18.064Z,8.27
2024-03-08T08:55:15.948Z,8.35
2024-03-08T08:56:17.084Z,8.86
2024-03-08T08:57:15.005Z,8.56
2024-03-08T08:58:12.478Z,8.86
2024-03-08T08:59:09.369Z,8.72
2024-03-08T09:00:08.690Z,8.40
2024-03-08T09:01:06.469Z,8.78
2024-03-08T09:02:05.800Z,8.72
2024-03-08T09:03:03.580Z,8.53
2024-03-08T09:04:00.425Z,8.10
2024-03-08T09:04:57.860Z,8.66
2024-03-08T09:05:54.955Z,8.61
2024-03-08T09:06:51.763Z,8.74
2024-03-08T09:07:48.754Z,8.54
2024-03-08T09:08:47.049Z,8.76
2024-03-08T09:09:44.707Z,9.01
2024-03-08T09:10:41.687Z,8.74
2024-03-08T09:11:42.820Z,8.80
2024-03-08T09:12:40.709Z,9.03
2024-03-08T09:13:40.588Z,9.01
2024-03-08T09:14:37.570Z,8.80
2024-03-08T09:15:34.574Z,9.06
2024-03-08T09:16:32.392Z,8.92
2024-03-08T09:17:29.365Z,8.31
2024-03-08T09:18:26.449Z,8.29
2024-03-08T09:19:27.046Z,8.28
2024-03-08T09:20:24.068Z,8.31
2024-03-08T09:21:23.820Z,8.43
2024-03-08T09:22:21.117Z,8.37
2024-03-08T09:23:21.034Z,8.63
2024-03-08T09:24:17.883Z,8.79
2024-03-08T09:25:15.003Z,8.95
2024-03-08T09:26:19.157Z,9.09
2024-03-08T09:27:22.449Z,8.74
2024-03-08T09:28:19.514Z,8.92
2024-03-08T09:29:17.263Z,8.78
2024-03-08T09:30:14.561Z,8.95
2024-03-08T09:31:12.583Z,8.99
2024-03-08T09:32:09.443Z,9.32
2024-03-08T09:33:07.253Z,9.05
2024-03-08T09:34:04.152Z,8.55
2024-03-08T09:35:02.367Z,8.23
2024-03-08T09:36:04.032Z,8.83
2024-03-08T09:37:01.084Z,9.02
2024-03-08T09:37:58.107Z,9.08
2024-03-08T09:38:54.948Z,8.85
2024-03-08T09:39:51.722Z,9.03
2024-03-08T09:40:49.354Z,9.06
2024-03-08T09:41:49.172Z,8.93
2024-03-08T09:42:46.878Z,9.02
2024-03-08T09:43:44.359Z,9.52
2024-03-08T09:44:45.392Z,9.07
2024-03-08T09:45:43.632Z,9.06
2024-03-08T09:46:41.697Z,8.84
2024-03-08T09:47:43.272Z,8.98
2024-03-08T09:48:42.772Z,8.81
2024-03-08T09:49:39.687Z,9.35
2024-03-08T09:50:36.685Z,8.93
2024-03-08T09:51:36.969Z,8.53
2024-03-08T09:52:34.537Z,8.93
2024-03-08T09:53:32.254Z,9.29
2024-03-08T09:54:29.435Z,9.33
2024-03-08T09:55:32.940Z,9.44
2024-03-08T09:56:30.338Z,9.60
2024-03-08T09:57:27.416Z,9.22
2024-03-08T09:58:36.173Z,9.01
2024-03-08T09:59:39.113Z,9.26
2024-03-08T10:00:36.147Z,9.20
2024-03-08T10:01:33.580Z,8.97
2024-03-08T10:02:30.845Z,9.18
2024-03-08T10:03:27.863Z,9.28
2024-03-08T10:04:24.836Z,9.54
2024-03-08T10:05:23.184Z,9.16
2024-03-08T10:06:24.563Z,9.26
2024-03-08T10:07:21.425Z,8.90
2024-03-08T10:08:18.317Z,9.10
2024-03-08T10:09:17.139Z,9.27
2024-03-08T10:10:14.004Z,9.44
2024-03-08T10:11:12.988Z,9.28
2024-03-08T10:12:10.843Z,9.09
2024-03-08T10:13:08.366Z,8.99
2024-03-08T10:14:07.418Z,9.06
2024-03-08T10:15:04.782Z,9.39
2024-03-08T10:16:02.401Z,9.16
2024-03-08T10:17:02.414Z,9.16
2024-03-08T10:17:59.407Z,8.61
2024-03-08T10:18:58.284Z,8.46
2024-03-08T10:19:55.153Z,8.33
2024-03-08T10:21:05.660Z,8.82
2024-03-08T10:22:02.671Z,9.22
2024-03-08T10:23:10.852Z,9.30
2024-03-08T10:24:11.882Z,9.24
2024-03-08T10:25:09.406Z,9.12
2024-03-08T10:26:16.913Z,8.73
2024-03-08T10:27:13.933Z,8.97
2024-03-08T10:28:10.753Z,8.25
2024-03-08T10:29:09.441Z,8.85
2024-03-08T10:30:11.275Z,8.74
2024-03-08T10:31:08.178Z,8.30
2024-03-08T10:32:06.895Z,8.40
2024-03-08T10:33:06.412Z,9.02
2024-03-08T10:34:03.593Z,9.18
2024-03-08T10:35:00.668Z,9.23
2024-03-08T10:35:58.228Z,9.14
2024-03-08T10:37:05.403Z,9.38
2024-03-08T10:38:08.959Z,9.10
2024-03-08T10:39:25.601Z,9.16
2024-03-08T10:40:26.922Z,9.18
2024-03-08T10:41:26.635Z,8.94
2024-03-08T10:42:30.330Z,8.93
2024-03-08T10:43:35.285Z,8.74
2024-03-08T10:44:35.745Z,8.60
2024-03-08T10:45:44.380Z,8.59
2024-03-08T10:46:59.469Z,8.46
2024-03-08T10:48:09.956Z,8.42
2024-03-08T10:49:18.601Z,8.32
2024-03-08T10:50:26.413Z,8.83
2024-03-08T10:51:24.657Z,9.03
2024-03-08T10:52:23.488Z,9.06
2024-03-08T10:53:22.654Z,9.41
2024-03-08T10:54:21.604Z,9.56
2024-03-08T10:55:22.806Z,9.03
2024-03-08T10:56:19.881Z,8.93
2024-03-08T10:57:20.557Z,9.20
2024-03-08T10:58:18.985Z,9.19
2024-03-08T10:59:18.377Z,9.54
2024-03-08T11:00:15.645Z,9.55
2024-03-08T11:01:13.084Z,9.19
2024-03-08T11:02:13.583Z,9.58
2024-03-08T11:03:43.770Z,9.68
2024-03-08T11:04:47.809Z,9.70
2024-03-08T11:05:46.582Z,9.31
2024-03-08T11:06:48.441Z,9.44
2024-03-08T11:07:45.399Z,9.35
2024-03-08T11:08:42.856Z,9.34
2024-03-08T11:09:39.909Z,9.42
2024-03-08T11:10:57.233Z,9.61
2024-03-08T11:12:21.316Z,9.38
2024-03-08T11:13:47.225Z,9.75
2024-03-08T11:14:47.521Z,10.00
2024-03-08T11:15:45.305Z,9.94
2024-03-08T11:16:46.423Z,9.82
2024-03-08T11:17:49.631Z,9.90
2024-03-08T11:18:49.109Z,9.88
2024-03-08T11:19:50.526Z,10.20
2024-03-08T11:20:50.388Z,9.93
2024-03-08T11:21:47.508Z,10.10
2024-03-08T11:23:07.236Z,9.66
2024-03-08T11:24:13.122Z,9.90
2024-03-08T11:25:12.172Z,10.38
2024-03-08T11:26:24.759Z,9.73
2024-03-08T11:27:21.691Z,10.46
2024-03-08T11:28:24.354Z,10.06
2024-03-08T11:29:31.808Z,10.31
2024-03-08T11:30:28.721Z,10.47
2024-03-08T11:31:27.885Z,9.95
2024-03-08T11:32:29.359Z,9.92
2024-03-08T11:33:29.938Z,9.76
2024-03-08T11:34:27.594Z,10.11
2024-03-08T11:35:24.923Z,10.16
2024-03-08T11:36:26.345Z,10.17
2024-03-08T11:37:23.435Z,9.38
2024-03-08T11:38:20.993Z,9.49
2024-03-08T11:39:18.557Z,9.41
2024-03-08T11:40:21.483Z,9.22
2024-03-08T11:41:24.254Z,9.02
2024-03-08T11:42:21.323Z,8.91
2024-03-08T11:43:18.161Z,8.83
2024-03-08T11:44:17.427Z,9.00
2024-03-08T11:45:15.518Z,9.14
2024-03-08T11:46:13.838Z,9.08
2024-03-08T11:47:11.965Z,8.73
2024-03-08T11:48:09.747Z,9.39
2024-03-08T11:49:06.909Z,9.47
2024-03-08T11:50:04.733Z,9.18
2024-03-08T11:51:06.176Z,9.31
2024-03-08T11:52:04.076Z,9.36
2024-03-08T11:53:07.023Z,9.02
2024-03-08T11:54:04.457Z,8.91
2024-03-08T11:55:01.532Z,9.13
2024-03-08T11:56:28.404Z,9.54
2024-03-08T11:57:25.696Z,9.66
2024-03-08T11:58:22.583Z,9.73
2024-03-08T11:59:19.457Z,9.64
2024-03-08T12:00:27.949Z,9.91
2024-03-08T12:01:25.661Z,9.60
2024-03-08T12:02:22.553Z,9.50
2024-03-08T12:03:19.427Z,9.73
2024-03-08T12:04:16.350Z,9.34
2024-03-08T12:05:17.717Z,9.49
2024-03-08T12:06:14.784Z,9.11
2024-03-08T12:07:13.430Z,9.07
2024-03-08T12:08:13.902Z,9.44
2024-03-08T12:09:14.285Z,9.18
2024-03-08T12:10:22.981Z,9.52
2024-03-08T12:11:24.306Z,9.28
2024-03-08T12:12:22.699Z,9.52
2024-03-08T12:13:19.555Z,9.61
2024-03-08T12:14:16.818Z,9.80
2024-03-08T12:15:13.836Z,9.46
2024-03-08T12:16:11.083Z,9.69
2024-03-08T12:17:09.127Z,9.18
2024-03-08T12:18:08.296Z,9.68
2024-03-08T12:19:06.836Z,9.85
2024-03-08T12:20:26.830Z,10.11
2024-03-08T12:21:26.478Z,9.91
2024-03-08T12:22:27.382Z,10.11
2024-03-08T12:23:24.716Z,10.22
2024-03-08T12:24:22.606Z,10.28
2024-03-08T12:25:20.225Z,10.55
2024-03-08T12:26:19.366Z,10.36
2024-03-08T12:27:20.955Z,10.25
2024-03-08T12:28:20.763Z,10.12
2024-03-08T12:29:25.869Z,10.33
2024-03-08T12:30:24.269Z,10.53
2024-03-08T12:31:23.181Z,10.18
2024-03-08T12:32:20.350Z,9.57
2024-03-08T12:33:17.957Z,9.90
2024-03-08T12:34:15.771Z,9.90
2024-03-08T12:35:12.838Z,9.43
2024-03-08T12:36:17.094Z,9.76
2024-03-08T12:37:14.150Z,9.84
2024-03-08T12:38:11.549Z,9.64
2024-03-08T12:39:13.567Z,9.74
2024-03-08T12:40:11.564Z,9.69
2024-03-08T12:41:09.765Z,9.68
2024-03-08T12:42:07.411Z,9.85
2024-03-08T12:43:04.767Z,9.92
2024-03-08T12:44:01.641Z,9.82
2024-03-08T12:45:00.767Z,9.50
2024-03-08T12:45:58.545Z,9.54
2024-03-08T12:46:55.862Z,9.24
2024-03-08T12:47:54.441Z,9.56
2024-03-08T12:48:51.422Z,9.79
2024-03-08T12:49:48.397Z,9.70
2024-03-08T12:50:46.561Z,9.27
2024-03-08T12:51:43.470Z,9.85
2024-03-08T12:52:40.511Z,9.77
2024-03-08T12:53:37.449Z,9.97
2024-03-08T12:54:34.506Z,9.99
2024-03-08T12:55:32.017Z,9.88
2024-03-08T12:56:35.153Z,9.60
2024-03-08T12:57:32.132Z,9.71
2024-03-08T12:58:29.082Z,9.27
2024-03-08T12:59:26.131Z,9.61
2024-03-08T13:00:25.048Z,9.34
2024-03-08T13:01:22.178Z,9.41